Time;durP1;ratioP1;P1;durP2;ratioP2;P2;SDS_P1;SDS_P2;PMS_P1;PMS_P2;Temp;Humidity;BMP_temperature;BMP_pressure;BME280_temperature;BME280_humidity;BME280_pressure;Samples;Min_cycle;Max_cycle;Signal;HPM_P1;HPM_P2
2023/03/27 00:02:21;;;;;;;2.33;0.80;;;;;;;;;;5026691;28;20029;-75
2023/03/27 00:04:47;;;;;;;0.30;0.30;;;;;;;;;;5025283;28;20112;-75
2023/03/27 00:07:13;;;;;;;1.10;0.60;;;;;;;;;;5026445;28;20022;-76
2023/03/27 00:09:42;;;;;;;0.50;0.30;;;;;;;;;;5021984;28;20075;-75
2023/03/27 00:12:08;;;;;;;1.25;0.50;;;;;;;;;;5019279;28;20044;-75
2023/03/27 00:14:35;;;;;;;0.35;0.35;;;;;;;;;;5018281;28;20384;-75
2023/03/27 00:17:01;;;;;;;1.13;0.70;;;;;;;;;;5027181;28;20025;-76
2023/03/27 00:19:27;;;;;;;0.90;0.50;;;;;;;;;;5026446;28;20033;-76
2023/03/27 00:21:53;;;;;;;1.88;0.40;;;;;;;;;;5020198;28;20091;-76
2023/03/27 00:24:19;;;;;;;0.75;0.50;;;;;;;;;;5026119;28;20450;-75
2023/03/27 00:26:46;;;;;;;0.57;0.30;;;;;;;;;;5024993;28;20037;-75
2023/03/27 00:29:12;;;;;;;0.88;0.52;;;;;;;;;;5021523;28;20374;-76
2023/03/27 00:31:38;;;;;;;1.27;0.50;;;;;;;;;;5025275;28;20014;-76
2023/03/27 00:34:04;;;;;;;0.57;0.57;;;;;;;;;;5021280;28;20330;-76
2023/03/27 00:36:30;;;;;;;1.25;0.40;;;;;;;;;;5025040;28;20312;-76
2023/03/27 00:38:56;;;;;;;0.77;0.73;;;;;;;;;;5026278;28;20083;-75
2023/03/27 00:41:22;;;;;;;0.90;0.60;;;;;;;;;;5025507;28;20037;-75
2023/03/27 00:43:50;;;;;;;0.60;0.50;;;;;;;;;;5020354;28;20054;-76
2023/03/27 00:46:30;;;;;;;1.77;0.50;;;;;;;;;;5024144;28;20046;-75
2023/03/27 00:48:57;;;;;;;3.40;0.63;;;;;;;;;;5023557;28;20032;-75
2023/03/27 00:51:25;;;;;;;0.40;0.40;;;;;;;;;;5019307;28;20029;-75
2023/03/27 00:53:52;;;;;;;1.95;0.52;;;;;;;;;;5026438;28;20228;-75
2023/03/27 00:56:18;;;;;;;0.50;0.47;;;;;;;;;;5025594;28;20491;-76
2023/03/27 00:58:53;;;;;;;0.30;0.30;;;;;;;;;;5028885;28;20067;-76
2023/03/27 01:01:19;;;;;;;1.38;0.40;;;;;;;;;;5024798;28;20481;-76
2023/03/27 01:03:48;;;;;;;0.25;0.20;;;;;;;;;;5029101;28;20035;-76
2023/03/27 01:06:15;;;;;;;0.15;0.15;;;;;;;;;;5026521;28;20104;-76
2023/03/27 01:08:43;;;;;;;1.50;0.90;;;;;;;;;;5030007;28;20036;-75
2023/03/27 01:11:29;;;;;;;0.35;0.25;;;;;;;;;;5018932;28;20380;-76
2023/03/27 01:14:13;;;;;;;1.13;0.30;;;;;;;;;;5026561;28;20480;-75
2023/03/27 01:16:59;;;;;;;1.33;0.82;;;;;;;;;;5018871;28;20030;-75
2023/03/27 01:19:28;;;;;;;0.40;0.40;;;;;;;;;;5025818;28;20056;-76
2023/03/27 01:22:06;;;;;;;0.28;0.28;;;;;;;;;;5025516;28;20037;-75
2023/03/27 01:24:52;;;;;;;0.30;0.30;;;;;;;;;;5028960;28;20033;-75
2023/03/27 01:27:36;;;;;;;0.40;0.40;;;;;;;;;;5027544;28;20026;-76
2023/03/27 01:30:05;;;;;;;2.28;0.35;;;;;;;;;;5029597;28;20120;-76
2023/03/27 01:32:50;;;;;;;0.40;0.40;;;;;;;;;;5023293;28;20117;-75
2023/03/27 01:35:16;;;;;;;0.77;0.30;;;;;;;;;;5020638;28;20033;-75
2023/03/27 01:38:01;;;;;;;0.73;0.40;;;;;;;;;;5026043;28;20053;-76
2023/03/27 01:40:57;;;;;;;0.55;0.38;;;;;;;;;;5024459;28;20037;-76
2023/03/27 01:43:30;;;;;;;0.38;0.38;;;;;;;;;;5010763;28;20048;-76
2023/03/27 01:46:10;;;;;;;0.50;0.45;;;;;;;;;;5024537;28;20057;-75
2023/03/27 01:48:42;;;;;;;0.77;0.20;;;;;;;;;;5016561;28;20056;-75
2023/03/27 01:51:20;;;;;;;0.43;0.43;;;;;;;;;;5027034;28;20057;-75
2023/03/27 01:53:56;;;;;;;0.52;0.35;;;;;;;;;;5027076;28;20021;-75
2023/03/27 01:56:31;;;;;;;0.57;0.43;;;;;;;;;;5022246;28;20223;-75
2023/03/27 01:59:02;;;;;;;0.30;0.30;;;;;;;;;;5021301;28;20114;-75
2023/03/27 02:01:31;;;;;;;0.30;0.20;;;;;;;;;;5026623;28;20029;-75
2023/03/27 02:04:00;;;;;;;0.65;0.32;;;;;;;;;;5024465;28;20528;-75
2023/03/27 02:06:29;;;;;;;2.28;0.40;;;;;;;;;;5021197;28;20076;-75
2023/03/27 02:09:01;;;;;;;0.45;0.30;;;;;;;;;;5019825;28;20034;-75
2023/03/27 02:11:30;;;;;;;0.47;0.40;;;;;;;;;;5026011;28;20017;-75
2023/03/27 02:14:02;;;;;;;0.20;0.20;;;;;;;;;;5028334;28;20480;-76
2023/03/27 02:16:33;;;;;;;0.35;0.35;;;;;;;;;;5027661;28;20528;-75
2023/03/27 02:19:01;;;;;;;0.20;0.20;;;;;;;;;;5016769;28;20025;-75
2023/03/27 02:21:30;;;;;;;1.38;0.65;;;;;;;;;;5026558;28;20034;-75
2023/03/27 02:23:56;;;;;;;0.38;0.38;;;;;;;;;;5023567;28;20037;-75
2023/03/27 02:26:22;;;;;;;0.43;0.30;;;;;;;;;;5029870;28;20535;-76
2023/03/27 02:28:54;;;;;;;0.20;0.20;;;;;;;;;;5024199;28;20116;-75
2023/03/27 02:31:28;;;;;;;0.68;0.50;;;;;;;;;;5026133;28;20037;-75
2023/03/27 02:34:04;;;;;;;0.47;0.45;;;;;;;;;;5028113;28;20087;-75
2023/03/27 02:36:42;;;;;;;0.40;0.40;;;;;;;;;;5026672;28;20048;-75
2023/03/27 02:39:17;;;;;;;0.20;0.20;;;;;;;;;;5012128;28;20040;-75
2023/03/27 02:41:49;;;;;;;0.20;0.20;;;;;;;;;;5028650;28;20399;-75
2023/03/27 02:44:21;;;;;;;0.60;0.40;;;;;;;;;;5027131;28;20053;-75
2023/03/27 02:46:54;;;;;;;0.40;0.38;;;;;;;;;;5000649;28;20415;-76
2023/03/27 02:49:25;;;;;;;0.25;0.25;;;;;;;;;;5016851;28;20045;-75
2023/03/27 02:51:54;;;;;;;0.33;0.30;;;;;;;;;;5023819;28;20033;-75
2023/03/27 02:54:24;;;;;;;0.10;0.10;;;;;;;;;;5026965;28;20279;-75
2023/03/27 02:56:54;;;;;;;0.70;0.70;;;;;;;;;;5027079;28;20107;-75
2023/03/27 02:59:34;;;;;;;0.20;0.20;;;;;;;;;;5025194;28;20103;-75
2023/03/27 03:02:01;;;;;;;0.22;0.20;;;;;;;;;;5018834;28;20084;-75
2023/03/27 03:04:29;;;;;;;2.03;0.65;;;;;;;;;;5024957;28;20064;-75
2023/03/27 03:06:55;;;;;;;0.25;0.25;;;;;;;;;;5018066;28;20053;-75
2023/03/27 03:09:21;;;;;;;0.52;0.30;;;;;;;;;;5026738;28;20072;-75
2023/03/27 03:11:50;;;;;;;0.15;0.15;;;;;;;;;;5019307;28;20548;-75
2023/03/27 03:14:18;;;;;;;1.13;0.30;;;;;;;;;;5026363;28;20084;-75
2023/03/27 03:16:44;;;;;;;0.30;0.30;;;;;;;;;;5025048;28;20488;-75
2023/03/27 03:19:10;;;;;;;0.20;0.20;;;;;;;;;;5019577;28;20037;-75
2023/03/27 03:21:36;;;;;;;0.30;0.30;;;;;;;;;;5020394;28;20512;-75
2023/03/27 03:24:02;;;;;;;0.30;0.28;;;;;;;;;;5024911;28;20476;-75
2023/03/27 03:26:28;;;;;;;0.20;0.20;;;;;;;;;;5025316;28;20034;-75
2023/03/27 03:28:56;;;;;;;0.55;0.20;;;;;;;;;;5021402;28;20033;-75
2023/03/27 03:31:22;;;;;;;0.25;0.20;;;;;;;;;;5027715;28;20061;-75
2023/03/27 03:33:48;;;;;;;0.30;0.30;;;;;;;;;;5026117;28;20082;-76
2023/03/27 03:36:17;;;;;;;0.20;0.20;;;;;;;;;;5019891;28;20067;-75
2023/03/27 03:38:43;;;;;;;0.60;0.28;;;;;;;;;;5019603;28;20026;-75
2023/03/27 03:41:09;;;;;;;0.52;0.20;;;;;;;;;;5025995;28;20038;-75
2023/03/27 03:43:35;;;;;;;0.20;0.20;;;;;;;;;;5020674;28;20065;-75
2023/03/27 03:46:01;;;;;;;0.30;0.30;;;;;;;;;;5017297;28;20041;-75
2023/03/27 03:48:27;;;;;;;1.00;0.30;;;;;;;;;;5025615;28;20033;-75
2023/03/27 03:50:53;;;;;;;0.13;0.13;;;;;;;;;;5028459;28;20365;-75
2023/03/27 03:53:20;;;;;;;0.65;0.40;;;;;;;;;;5024639;28;20033;-77
2023/03/27 03:55:49;;;;;;;0.10;0.10;;;;;;;;;;5021585;28;20492;-77
2023/03/27 03:58:15;;;;;;;0.40;0.40;;;;;;;;;;5020706;28;20026;-79
2023/03/27 04:00:42;;;;;;;0.40;0.30;;;;;;;;;;5023189;28;20021;-79
2023/03/27 04:03:13;;;;;;;0.52;0.40;;;;;;;;;;5009189;28;20369;-80
2023/03/27 04:05:39;;;;;;;0.50;0.30;;;;;;;;;;5024633;28;20033;-80
2023/03/27 04:08:06;;;;;;;0.30;0.30;;;;;;;;;;5011622;28;20042;-79
2023/03/27 04:10:32;;;;;;;1.25;0.45;;;;;;;;;;5023921;28;20069;-78
2023/03/27 04:12:58;;;;;;;0.82;0.52;;;;;;;;;;5008409;28;20500;-78
2023/03/27 04:15:25;;;;;;;0.60;0.55;;;;;;;;;;5019557;28;20022;-79
2023/03/27 04:17:51;;;;;;;0.70;0.28;;;;;;;;;;5022151;28;20546;-79
2023/03/27 04:20:17;;;;;;;2.33;1.15;;;;;;;;;;5019297;28;20033;-75
2023/03/27 04:22:45;;;;;;;0.47;0.30;;;;;;;;;;5020580;28;20021;-75
2023/03/27 04:25:12;;;;;;;0.30;0.30;;;;;;;;;;5002546;28;20057;-75
2023/03/27 04:27:38;;;;;;;0.15;0.15;;;;;;;;;;5018079;28;20088;-75
2023/03/27 04:30:08;;;;;;;0.30;0.30;;;;;;;;;;5021048;28;20044;-75
2023/03/27 04:32:35;;;;;;;0.80;0.40;;;;;;;;;;5030948;28;20484;-75
2023/03/27 04:35:01;;;;;;;1.20;0.57;;;;;;;;;;5034278;28;20025;-75
2023/03/27 04:37:38;;;;;;;0.75;0.55;;;;;;;;;;5033274;28;20025;-75
2023/03/27 04:40:05;;;;;;;0.47;0.32;;;;;;;;;;5033036;28;20037;-75
2023/03/27 04:42:32;;;;;;;0.28;0.28;;;;;;;;;;5033061;28;20456;-76
2023/03/27 04:44:57;;;;;;;0.35;0.35;;;;;;;;;;5033827;28;20033;-75
2023/03/27 04:47:24;;;;;;;2.50;1.48;;;;;;;;;;5033684;28;20364;-75
2023/03/27 04:49:50;;;;;;;4.65;0.57;;;;;;;;;;5018378;28;20021;-75
2023/03/27 04:52:17;;;;;;;0.93;0.43;;;;;;;;;;5032452;28;20488;-75
2023/03/27 04:54:43;;;;;;;0.73;0.50;;;;;;;;;;5031201;28;20108;-75
2023/03/27 04:57:09;;;;;;;0.35;0.10;;;;;;;;;;5023736;28;20030;-75
2023/03/27 04:59:38;;;;;;;0.77;0.30;;;;;;;;;;5034227;28;20230;-75
2023/03/27 05:02:05;;;;;;;1.80;0.35;;;;;;;;;;5031920;28;20033;-75
2023/03/27 05:04:31;;;;;;;0.35;0.30;;;;;;;;;;5026858;28;20532;-75
2023/03/27 05:06:58;;;;;;;0.30;0.30;;;;;;;;;;5029557;28;20117;-75
2023/03/27 05:09:24;;;;;;;0.30;0.30;;;;;;;;;;5028815;28;20030;-75
2023/03/27 05:11:50;;;;;;;0.28;0.28;;;;;;;;;;5014057;28;20034;-75
2023/03/27 05:14:17;;;;;;;0.20;0.20;;;;;;;;;;5023755;28;20071;-75
2023/03/27 05:16:45;;;;;;;0.30;0.30;;;;;;;;;;5027700;28;20041;-75
2023/03/27 05:19:11;;;;;;;0.30;0.30;;;;;;;;;;5032240;28;20021;-75
2023/03/27 05:21:37;;;;;;;0.63;0.35;;;;;;;;;;5029205;28;20041;-75
2023/03/27 05:24:03;;;;;;;0.30;0.30;;;;;;;;;;5024198;28;20036;-75
2023/03/27 05:26:30;;;;;;;0.85;0.50;;;;;;;;;;5033215;28;20473;-75
2023/03/27 05:28:57;;;;;;;0.88;0.55;;;;;;;;;;5027250;28;20029;-74
2023/03/27 05:31:24;;;;;;;0.40;0.40;;;;;;;;;;5030993;28;20056;-75
2023/03/27 05:33:51;;;;;;;0.57;0.50;;;;;;;;;;5027741;28;20025;-75
2023/03/27 05:36:17;;;;;;;1.23;0.60;;;;;;;;;;5018437;28;20037;-75
2023/03/27 05:38:44;;;;;;;0.45;0.45;;;;;;;;;;5032250;28;20468;-75
2023/03/27 05:41:10;;;;;;;0.57;0.47;;;;;;;;;;5029550;28;20037;-75
2023/03/27 05:43:37;;;;;;;1.40;0.32;;;;;;;;;;5027407;28;20132;-75
2023/03/27 05:46:03;;;;;;;1.00;0.40;;;;;;;;;;5027771;28;20112;-75
2023/03/27 05:48:29;;;;;;;1.02;0.50;;;;;;;;;;5027402;28;20055;-75
2023/03/27 05:50:55;;;;;;;0.65;0.50;;;;;;;;;;5029858;28;20025;-75
2023/03/27 05:53:22;;;;;;;0.47;0.47;;;;;;;;;;5017770;28;20029;-75
2023/03/27 05:55:48;;;;;;;0.90;0.70;;;;;;;;;;5028610;28;20022;-75
2023/03/27 05:58:14;;;;;;;1.40;0.60;;;;;;;;;;5028652;28;20749;-75
2023/03/27 06:00:41;;;;;;;1.55;0.75;;;;;;;;;;5019968;28;20604;-84
2023/03/27 06:03:08;;;;;;;0.93;0.60;;;;;;;;;;5027403;28;20193;-75
2023/03/27 06:05:34;;;;;;;3.10;0.88;;;;;;;;;;5018821;28;20030;-75
2023/03/27 06:08:01;;;;;;;1.30;0.52;;;;;;;;;;5018820;28;20033;-77
2023/03/27 06:10:28;;;;;;;0.50;0.40;;;;;;;;;;5030168;28;20028;-77
2023/03/27 06:13:02;;;;;;;1.70;0.57;;;;;;;;;;5011229;28;20396;-76
2023/03/27 06:15:28;;;;;;;1.02;0.63;;;;;;;;;;5025705;28;20021;-76
2023/03/27 06:17:54;;;;;;;1.30;0.68;;;;;;;;;;5030485;28;20021;-75
2023/03/27 06:20:21;;;;;;;0.52;0.52;;;;;;;;;;5028556;28;20021;-76
2023/03/27 06:22:48;;;;;;;0.65;0.45;;;;;;;;;;5028866;28;20026;-76
2023/03/27 06:25:17;;;;;;;0.50;0.35;;;;;;;;;;5030121;28;20037;-76
2023/03/27 06:27:44;;;;;;;0.38;0.38;;;;;;;;;;5020055;28;20030;-76
2023/03/27 06:30:11;;;;;;;0.52;0.40;;;;;;;;;;5028981;28;20033;-76
2023/03/27 06:32:42;;;;;;;1.40;0.70;;;;;;;;;;5029966;28;20026;-75
2023/03/27 06:35:09;;;;;;;0.40;0.30;;;;;;;;;;5029964;28;20036;-76
2023/03/27 06:37:35;;;;;;;2.35;0.60;;;;;;;;;;5029787;28;20029;-77
2023/03/27 06:40:02;;;;;;;0.77;0.60;;;;;;;;;;5029846;28;20029;-75
2023/03/27 06:42:29;;;;;;;0.65;0.55;;;;;;;;;;5028710;28;20396;-76
2023/03/27 06:44:54;;;;;;;0.45;0.45;;;;;;;;;;5019962;28;20033;-77
2023/03/27 06:47:21;;;;;;;0.65;0.43;;;;;;;;;;5020049;28;20041;-77
2023/03/27 06:49:47;;;;;;;0.98;0.43;;;;;;;;;;5020904;28;20431;-76
2023/03/27 06:52:13;;;;;;;1.02;0.52;;;;;;;;;;5026987;28;20492;-77
2023/03/27 06:54:40;;;;;;;0.93;0.40;;;;;;;;;;5019169;28;20505;-78
2023/03/27 06:57:06;;;;;;;0.30;0.28;;;;;;;;;;5024257;28;20120;-76
2023/03/27 06:59:32;;;;;;;0.45;0.40;;;;;;;;;;5017414;28;20025;-76
2023/03/27 07:01:57;;;;;;;0.50;0.30;;;;;;;;;;5031439;28;20033;-76
2023/03/27 07:04:24;;;;;;;1.55;0.50;;;;;;;;;;5028646;28;20036;-77
2023/03/27 07:06:50;;;;;;;0.98;0.45;;;;;;;;;;5027124;28;20044;-77
2023/03/27 07:09:15;;;;;;;0.32;0.32;;;;;;;;;;5036627;28;20445;-77
2023/03/27 07:11:41;;;;;;;0.73;0.22;;;;;;;;;;5038342;28;20045;-75
2023/03/27 07:14:08;;;;;;;2.05;0.50;;;;;;;;;;5027874;28;20087;-78
2023/03/27 07:16:34;;;;;;;0.80;0.68;;;;;;;;;;5020552;28;20025;-78
2023/03/27 07:19:00;;;;;;;0.30;0.28;;;;;;;;;;5019248;28;20037;-78
2023/03/27 07:21:26;;;;;;;0.80;0.52;;;;;;;;;;5019812;28;20058;-79
2023/03/27 07:23:52;;;;;;;0.40;0.40;;;;;;;;;;5023303;28;20273;-78
2023/03/27 07:26:18;;;;;;;2.40;0.38;;;;;;;;;;5029070;28;20051;-78
2023/03/27 07:28:44;;;;;;;0.77;0.45;;;;;;;;;;5026138;28;20528;-78
2023/03/27 07:31:12;;;;;;;1.23;0.63;;;;;;;;;;5027830;28;20021;-78
2023/03/27 07:33:38;;;;;;;0.45;0.30;;;;;;;;;;5036435;28;20026;-80
2023/03/27 07:36:08;;;;;;;0.40;0.40;;;;;;;;;;5036430;28;20033;-78
2023/03/27 07:38:34;;;;;;;0.45;0.45;;;;;;;;;;5028818;28;20029;-79
2023/03/27 07:41:06;;;;;;;0.60;0.50;;;;;;;;;;5026856;28;20149;-83
2023/03/27 07:43:33;;;;;;;0.90;0.50;;;;;;;;;;5013222;28;20115;-79
2023/03/27 07:45:59;;;;;;;1.27;0.55;;;;;;;;;;5025300;28;20029;-79
2023/03/27 07:48:26;;;;;;;0.40;0.30;;;;;;;;;;5024043;28;20031;-78
2023/03/27 07:50:56;;;;;;;0.40;0.40;;;;;;;;;;5029142;28;20018;-80
2023/03/27 07:53:22;;;;;;;0.32;0.22;;;;;;;;;;5015817;28;20503;-76
2023/03/27 07:55:51;;;;;;;1.83;0.35;;;;;;;;;;5025134;28;20382;-88
2023/03/27 07:58:20;;;;;;;0.63;0.40;;;;;;;;;;5020765;28;20029;-77
2023/03/27 08:00:50;;;;;;;0.98;0.52;;;;;;;;;;5016084;28;20037;-76
2023/03/27 08:03:16;;;;;;;0.30;0.28;;;;;;;;;;5013830;28;20532;-76
2023/03/27 08:05:42;;;;;;;0.55;0.30;;;;;;;;;;5020810;28;20075;-76
2023/03/27 08:08:08;;;;;;;0.30;0.30;;;;;;;;;;5022531;28;20033;-76
2023/03/27 08:10:35;;;;;;;0.43;0.30;;;;;;;;;;5023146;28;20026;-75
2023/03/27 08:13:01;;;;;;;0.20;0.20;;;;;;;;;;5013782;28;20528;-76
2023/03/27 08:15:27;;;;;;;0.35;0.35;;;;;;;;;;5021662;28;20048;-75
2023/03/27 08:17:55;;;;;;;0.38;0.30;;;;;;;;;;5014512;28;20059;-75
2023/03/27 08:20:22;;;;;;;0.50;0.50;;;;;;;;;;5024762;28;20499;-79
2023/03/27 08:22:50;;;;;;;0.30;0.30;;;;;;;;;;5015388;28;20065;-79
2023/03/27 08:25:16;;;;;;;0.17;0.17;;;;;;;;;;5023219;28;20472;-80
2023/03/27 08:27:43;;;;;;;0.20;0.20;;;;;;;;;;5029503;28;20368;-79
2023/03/27 08:30:11;;;;;;;0.47;0.40;;;;;;;;;;5027013;28;20068;-77
2023/03/27 08:32:38;;;;;;;0.40;0.40;;;;;;;;;;5026996;28;20458;-78
2023/03/27 08:35:06;;;;;;;0.30;0.30;;;;;;;;;;5026812;28;20053;-78
2023/03/27 08:37:32;;;;;;;0.40;0.40;;;;;;;;;;5018148;28;20034;-78
2023/03/27 08:40:00;;;;;;;1.40;0.63;;;;;;;;;;5012225;28;20033;-78
2023/03/27 08:42:36;;;;;;;0.85;0.47;;;;;;;;;;5020865;28;20052;-80
2023/03/27 08:45:07;;;;;;;0.35;0.35;;;;;;;;;;5016140;28;20164;-78
2023/03/27 08:47:35;;;;;;;0.25;0.20;;;;;;;;;;5010495;28;20042;-79
2023/03/27 08:50:04;;;;;;;0.52;0.35;;;;;;;;;;5007911;28;20046;-85
2023/03/27 08:52:31;;;;;;;0.25;0.25;;;;;;;;;;5017308;28;20026;-80
2023/03/27 08:55:04;;;;;;;1.33;0.38;;;;;;;;;;5023243;28;20033;-78
2023/03/27 08:57:31;;;;;;;0.73;0.13;;;;;;;;;;5027710;28;20037;-80
2023/03/27 08:59:58;;;;;;;0.55;0.40;;;;;;;;;;5023588;28;20053;-79
2023/03/27 09:02:49;;;;;;;0.45;0.30;;;;;;;;;;5016999;28;20025;-80
2023/03/27 09:05:21;;;;;;;0.80;0.30;;;;;;;;;;5017406;28;20465;-82
2023/03/27 09:07:54;;;;;;;0.28;0.28;;;;;;;;;;5018415;28;20112;-80
2023/03/27 09:10:40;;;;;;;0.30;0.30;;;;;;;;;;5014593;28;20026;-81
2023/03/27 09:13:15;;;;;;;0.50;0.50;;;;;;;;;;5013447;28;20431;-79
2023/03/27 09:15:44;;;;;;;0.40;0.40;;;;;;;;;;5022471;28;20552;-79
2023/03/27 09:18:24;;;;;;;0.40;0.30;;;;;;;;;;5029670;28;20410;-80
2023/03/27 09:20:54;;;;;;;0.30;0.30;;;;;;;;;;5013877;28;20535;-78
2023/03/27 09:23:41;;;;;;;0.20;0.15;;;;;;;;;;5024428;28;20033;-78
2023/03/27 09:26:16;;;;;;;0.25;0.25;;;;;;;;;;5029706;28;20037;-79
2023/03/27 09:28:44;;;;;;;0.38;0.38;;;;;;;;;;5029033;28;20030;-86
2023/03/27 09:31:30;;;;;;;0.40;0.40;;;;;;;;;;5027862;28;20044;-74
2023/03/27 09:33:57;;;;;;;0.40;0.40;;;;;;;;;;5018975;28;20026;-79
2023/03/27 09:36:23;;;;;;;0.40;0.40;;;;;;;;;;5030071;28;20112;-79
2023/03/27 09:38:57;;;;;;;0.30;0.30;;;;;;;;;;5027303;28;20499;-78
2023/03/27 09:41:26;;;;;;;0.75;0.20;;;;;;;;;;5026607;28;20117;-78
2023/03/27 09:43:52;;;;;;;0.30;0.30;;;;;;;;;;5021627;28;20081;-78
2023/03/27 09:46:21;;;;;;;0.22;0.22;;;;;;;;;;5028300;28;20770;-78
2023/03/27 09:49:11;;;;;;;0.40;0.40;;;;;;;;;;5029838;28;20017;-77
2023/03/27 09:51:39;;;;;;;0.30;0.25;;;;;;;;;;5024681;28;20022;-78
2023/03/27 09:54:06;;;;;;;0.20;0.20;;;;;;;;;;5028831;28;20074;-77
2023/03/27 09:56:35;;;;;;;0.50;0.50;;;;;;;;;;5028144;28;20029;-78
2023/03/27 09:59:08;;;;;;;1.95;0.20;;;;;;;;;;5022188;28;20112;-79
2023/03/27 10:01:34;;;;;;;0.25;0.25;;;;;;;;;;5026272;28;20107;-78
2023/03/27 10:04:00;;;;;;;0.60;0.40;;;;;;;;;;5027903;28;20033;-79
2023/03/27 10:06:30;;;;;;;0.20;0.20;;;;;;;;;;5011589;28;20026;-77
2023/03/27 10:08:59;;;;;;;0.40;0.40;;;;;;;;;;5012060;28;20113;-77
2023/03/27 10:11:27;;;;;;;0.55;0.50;;;;;;;;;;5024415;28;20623;-79
2023/03/27 10:13:54;;;;;;;0.20;0.20;;;;;;;;;;5029076;28;20041;-79
2023/03/27 10:16:21;;;;;;;0.32;0.32;;;;;;;;;;5022990;28;20022;-80
2023/03/27 10:18:48;;;;;;;0.45;0.30;;;;;;;;;;4992598;28;20022;-80
2023/03/27 10:21:25;;;;;;;0.57;0.57;;;;;;;;;;5023007;28;20044;-80
2023/03/27 10:23:51;;;;;;;0.40;0.40;;;;;;;;;;5028018;28;20052;-80
2023/03/27 10:26:24;;;;;;;0.30;0.30;;;;;;;;;;5019340;28;20033;-81
2023/03/27 10:28:51;;;;;;;0.30;0.30;;;;;;;;;;5019991;28;20037;-77
2023/03/27 10:31:27;;;;;;;0.17;0.17;;;;;;;;;;5017522;28;20037;-78
2023/03/27 10:33:53;;;;;;;0.63;0.50;;;;;;;;;;5019862;28;20041;-80
2023/03/27 10:36:20;;;;;;;0.20;0.20;;;;;;;;;;5012242;28;20056;-79
2023/03/27 10:38:50;;;;;;;0.38;0.38;;;;;;;;;;5014359;28;20092;-80
2023/03/27 10:41:19;;;;;;;0.30;0.30;;;;;;;;;;5024521;28;20473;-78
2023/03/27 10:43:46;;;;;;;0.40;0.40;;;;;;;;;;5024709;28;20049;-79
2023/03/27 10:46:14;;;;;;;0.40;0.40;;;;;;;;;;5024381;28;20101;-78
2023/03/27 10:49:02;;;;;;;1.08;0.98;;;;;;;;;;5023549;28;20384;-79
2023/03/27 10:51:47;;;;;;;1.38;0.47;;;;;;;;;;5024119;28;20084;-79
2023/03/27 10:54:24;;;;;;;0.95;0.40;;;;;;;;;;5024732;28;20667;-78
2023/03/27 10:56:52;;;;;;;0.47;0.40;;;;;;;;;;5025707;28;20022;-78
2023/03/27 10:59:25;;;;;;;0.40;0.40;;;;;;;;;;5023318;28;20050;-76
2023/03/27 11:01:53;;;;;;;1.02;0.50;;;;;;;;;;5023892;28;20026;-82
2023/03/27 11:04:22;;;;;;;0.55;0.45;;;;;;;;;;5024933;28;20481;-79
2023/03/27 11:06:52;;;;;;;1.02;0.40;;;;;;;;;;5026802;28;20029;-79
2023/03/27 11:09:32;;;;;;;0.47;0.47;;;;;;;;;;5020033;28;20034;-79
2023/03/27 11:12:09;;;;;;;0.40;0.40;;;;;;;;;;5023675;28;20018;-77
2023/03/27 11:14:49;;;;;;;1.70;0.60;;;;;;;;;;5025127;28;20017;-77
2023/03/27 11:17:17;;;;;;;0.35;0.32;;;;;;;;;;5022712;28;20384;-78
2023/03/27 11:19:46;;;;;;;0.77;0.40;;;;;;;;;;5020235;28;20112;-79
2023/03/27 11:22:19;;;;;;;0.40;0.30;;;;;;;;;;5021813;28;20029;-79
2023/03/27 11:24:51;;;;;;;1.80;0.65;;;;;;;;;;5021725;28;20472;-79
2023/03/27 11:27:38;;;;;;;0.30;0.30;;;;;;;;;;5020740;28;20037;-80
2023/03/27 11:30:09;;;;;;;0.32;0.32;;;;;;;;;;5021723;28;20552;-80
2023/03/27 11:32:52;;;;;;;0.90;0.50;;;;;;;;;;5025007;28;20022;-80
2023/03/27 11:35:27;;;;;;;0.50;0.43;;;;;;;;;;5021513;28;20057;-80
2023/03/27 11:38:01;;;;;;;0.68;0.68;;;;;;;;;;5023411;28;20032;-80
2023/03/27 11:40:33;;;;;;;0.82;0.40;;;;;;;;;;5018356;28;20033;-81
2023/03/27 11:43:00;;;;;;;0.50;0.50;;;;;;;;;;5020605;28;20056;-81
2023/03/27 11:45:28;;;;;;;1.15;0.30;;;;;;;;;;5022843;28;20029;-80
2023/03/27 11:48:00;;;;;;;0.43;0.43;;;;;;;;;;5024225;28;20036;-78
2023/03/27 11:50:26;;;;;;;3.40;0.80;;;;;;;;;;5021259;28;20195;-80
2023/03/27 11:53:05;;;;;;;0.32;0.32;;;;;;;;;;5020296;28;20032;-79
2023/03/27 11:55:43;;;;;;;0.40;0.40;;;;;;;;;;5021719;28;20076;-79
2023/03/27 11:58:30;;;;;;;0.75;0.55;;;;;;;;;;5012811;28;20025;-78
2023/03/27 12:01:06;;;;;;;0.20;0.20;;;;;;;;;;5018672;28;20041;-80
2023/03/27 12:03:35;;;;;;;1.35;0.45;;;;;;;;;;5022708;28;20116;-77
2023/03/27 12:06:19;;;;;;;0.20;0.20;;;;;;;;;;5025100;28;20151;-77
2023/03/27 12:08:55;;;;;;;0.50;0.50;;;;;;;;;;5027688;28;20037;-78
2023/03/27 12:11:21;;;;;;;1.33;0.30;;;;;;;;;;5026661;28;20033;-78
2023/03/27 12:14:08;;;;;;;0.90;0.40;;;;;;;;;;5026236;28;20156;-78
2023/03/27 12:16:48;;;;;;;0.40;0.40;;;;;;;;;;5020063;28;20022;-78
2023/03/27 12:19:21;;;;;;;0.32;0.32;;;;;;;;;;5023184;28;20530;-78
2023/03/27 12:22:20;;;;;;;0.73;0.45;;;;;;;;;;5016272;28;20036;-78
2023/03/27 12:25:05;;;;;;;1.25;0.47;;;;;;;;;;5005090;28;20120;-78
2023/03/27 12:27:46;;;;;;;0.88;0.50;;;;;;;;;;5023248;28;20540;-78
2023/03/27 12:30:15;;;;;;;0.40;0.30;;;;;;;;;;5027589;28;20037;-78
2023/03/27 12:33:05;;;;;;;1.50;0.32;;;;;;;;;;5027770;28;20032;-78
2023/03/27 12:35:34;;;;;;;0.45;0.45;;;;;;;;;;5027459;28;20048;-78
2023/03/27 12:38:08;;;;;;;0.88;0.40;;;;;;;;;;5026609;28;20030;-78
2023/03/27 12:40:36;;;;;;;0.40;0.40;;;;;;;;;;5025874;28;20033;-78
2023/03/27 12:43:04;;;;;;;1.45;0.47;;;;;;;;;;5027290;28;20053;-77
2023/03/27 12:45:31;;;;;;;0.20;0.20;;;;;;;;;;5027110;28;20441;-78
2023/03/27 12:48:09;;;;;;;0.75;0.50;;;;;;;;;;5027880;28;20026;-78
2023/03/27 12:50:40;;;;;;;0.40;0.40;;;;;;;;;;5027680;28;20037;-79
2023/03/27 12:53:07;;;;;;;0.55;0.43;;;;;;;;;;5030535;28;20029;-78
2023/03/27 12:55:36;;;;;;;3.67;0.43;;;;;;;;;;5031344;28;20025;-78
2023/03/27 12:58:04;;;;;;;2.83;0.30;;;;;;;;;;5031156;28;20032;-78
2023/03/27 13:00:30;;;;;;;1.35;0.30;;;;;;;;;;5031005;28;20052;-78
2023/03/27 13:03:15;;;;;;;0.52;0.32;;;;;;;;;;5029919;28;20033;-79
2023/03/27 13:05:57;;;;;;;0.40;0.40;;;;;;;;;;5031483;28;20025;-79
2023/03/27 13:08:34;;;;;;;0.38;0.38;;;;;;;;;;5031032;28;20033;-79
2023/03/27 13:11:12;;;;;;;0.20;0.20;;;;;;;;;;5031033;28;20041;-79
2023/03/27 13:13:57;;;;;;;0.30;0.30;;;;;;;;;;5025523;28;20028;-78
2023/03/27 13:16:42;;;;;;;1.08;0.32;;;;;;;;;;5023828;28;20780;-79
2023/03/27 13:19:21;;;;;;;0.52;0.43;;;;;;;;;;5031045;28;20315;-79
2023/03/27 13:22:10;;;;;;;0.32;0.32;;;;;;;;;;5022862;28;20523;-79
2023/03/27 13:24:48;;;;;;;0.40;0.30;;;;;;;;;;5011281;28;20026;-79
2023/03/27 13:27:31;;;;;;;0.47;0.47;;;;;;;;;;5023391;28;20060;-79
2023/03/27 13:29:58;;;;;;;1.75;0.73;;;;;;;;;;5030455;28;20570;-78
2023/03/27 13:32:31;;;;;;;1.40;0.30;;;;;;;;;;5030501;28;20366;-78
2023/03/27 13:35:03;;;;;;;2.10;0.30;;;;;;;;;;5030798;28;20044;-79
2023/03/27 13:37:29;;;;;;;7.18;0.35;;;;;;;;;;5028782;28;20030;-79
2023/03/27 13:39:56;;;;;;;0.30;0.30;;;;;;;;;;5030629;28;20044;-79
2023/03/27 13:42:26;;;;;;;0.13;0.13;;;;;;;;;;5028134;28;20095;-79
2023/03/27 13:44:58;;;;;;;0.22;0.20;;;;;;;;;;5030615;28;20042;-79
2023/03/27 13:47:33;;;;;;;3.17;0.40;;;;;;;;;;5028049;28;20472;-77
2023/03/27 13:49:59;;;;;;;0.10;0.10;;;;;;;;;;5030187;28;20644;-78
2023/03/27 13:52:37;;;;;;;0.20;0.20;;;;;;;;;;5030138;28;20033;-76
2023/03/27 13:55:12;;;;;;;1.38;0.32;;;;;;;;;;5030466;28;20026;-77
2023/03/27 13:57:53;;;;;;;0.20;0.20;;;;;;;;;;5028507;28;20080;-79
2023/03/27 14:00:22;;;;;;;0.30;0.30;;;;;;;;;;5030125;28;20438;-79
2023/03/27 14:03:06;;;;;;;0.20;0.20;;;;;;;;;;5029162;28;20053;-77
2023/03/27 14:05:51;;;;;;;0.25;0.25;;;;;;;;;;5030405;28;20657;-79
2023/03/27 14:08:35;;;;;;;0.70;0.20;;;;;;;;;;5028075;28;20476;-79
2023/03/27 14:11:07;;;;;;;0.30;0.30;;;;;;;;;;5030220;28;20052;-77
2023/03/27 14:13:41;;;;;;;0.75;0.30;;;;;;;;;;5030042;28;20037;-77
2023/03/27 14:16:26;;;;;;;0.35;0.35;;;;;;;;;;5024411;28;20370;-77
2023/03/27 14:19:11;;;;;;;0.20;0.20;;;;;;;;;;5014821;28;20091;-78
2023/03/27 14:21:55;;;;;;;0.40;0.40;;;;;;;;;;5023068;28;20084;-78
2023/03/27 14:24:21;;;;;;;0.60;0.52;;;;;;;;;;5009457;28;20109;-79
2023/03/27 14:26:48;;;;;;;0.57;0.20;;;;;;;;;;5028440;28;20025;-78
2023/03/27 14:29:15;;;;;;;0.35;0.30;;;;;;;;;;5029362;28;20115;-78
2023/03/27 14:31:43;;;;;;;0.43;0.40;;;;;;;;;;5028182;28;20022;-77
2023/03/27 14:34:09;;;;;;;0.17;0.17;;;;;;;;;;5023327;28;20026;-77
2023/03/27 14:36:41;;;;;;;0.32;0.32;;;;;;;;;;5016001;28;20048;-76
2023/03/27 14:39:15;;;;;;;0.10;0.10;;;;;;;;;;5010056;28;20029;-76
2023/03/27 14:41:53;;;;;;;0.60;0.38;;;;;;;;;;5024281;28;20138;-78
2023/03/27 14:44:20;;;;;;;0.40;0.40;;;;;;;;;;5023148;28;20061;-78
2023/03/27 14:46:47;;;;;;;0.20;0.20;;;;;;;;;;5016835;28;20030;-78
2023/03/27 14:49:22;;;;;;;0.28;0.28;;;;;;;;;;5009429;28;20512;-77
2023/03/27 14:51:49;;;;;;;0.15;0.10;;;;;;;;;;5022868;28;20326;-76
2023/03/27 14:54:26;;;;;;;0.22;0.20;;;;;;;;;;5026013;28;20108;-76
2023/03/27 14:56:57;;;;;;;0.63;0.47;;;;;;;;;;5002410;28;20034;-77
2023/03/27 14:59:23;;;;;;;;;;;;;;;;;;5020859;28;20036;-76
2023/03/27 15:01:51;;;;;;;0.20;0.20;;;;;;;;;;5009580;28;19906;-77
2023/03/27 15:04:17;;;;;;;0.28;0.28;;;;;;;;;;5018865;28;20108;-77